FDB1440 OMDB-VOHS
Flight info
| Callsign | FDB1440 |
|---|---|
| Flight time | N/A |
| Altitude | 35000 |
| Route | IVURO M677 LALDO B505 NADSO A777 VAXIM P307 PARAR N571 SUGID/N0454F370 DCT AROTA DCT BBB W28 PONIP NAMSA6 |
| Aircraft | B738/M-SDE2E3FGHIRWXY/LB1 |
Departure
| Time | 2026-05-03 21:31 |
|---|---|
| Airport | Dubai International Airport (OMDB) |
Arrival
| Time | N/A |
|---|---|
| Airport | Rajiv Gandhi International Airport (VOHS) |
| Time | Latitude | Longitude | Altitude | Speed | Heading |
|---|---|---|---|---|---|
| 2026-05-03 21:05 | 25.26473 | 55.35744 | 15 ft | 0 kts | 31° |
| 2026-05-03 21:15 | 25.26460 | 55.35735 | 16 ft | 4 kts | 34° |
| 2026-05-03 21:16 | 25.26439 | 55.35718 | 15 ft | 4 kts | 42° |
| 2026-05-03 21:16 | 25.26420 | 55.35696 | 14 ft | 4 kts | 60° |
| 2026-05-03 21:16 | 25.26414 | 55.35672 | 12 ft | 4 kts | 114° |
| 2026-05-03 21:16 | 25.26415 | 55.35667 | 13 ft | 1 kts | 121° |
| 2026-05-03 21:24 | 25.26408 | 55.35680 | 12 ft | 5 kts | 121° |
| 2026-05-03 21:24 | 25.26377 | 55.35734 | 12 ft | 11 kts | 120° |
| 2026-05-03 21:24 | 25.26327 | 55.35826 | 12 ft | 16 kts | 121° |
| 2026-05-03 21:24 | 25.26264 | 55.35940 | 14 ft | 18 kts | 121° |
| 2026-05-03 21:25 | 25.26192 | 55.36068 | 15 ft | 21 kts | 122° |
| 2026-05-03 21:25 | 25.26115 | 55.36206 | 20 ft | 21 kts | 121° |
| 2026-05-03 21:25 | 25.26037 | 55.36345 | 20 ft | 21 kts | 122° |
| 2026-05-03 21:25 | 25.25963 | 55.36480 | 20 ft | 20 kts | 121° |
| 2026-05-03 21:26 | 25.25892 | 55.36612 | 21 ft | 20 kts | 121° |
| 2026-05-03 21:26 | 25.25819 | 55.36738 | 22 ft | 19 kts | 122° |
| 2026-05-03 21:26 | 25.25753 | 55.36861 | 23 ft | 18 kts | 120° |
| 2026-05-03 21:26 | 25.25688 | 55.36981 | 23 ft | 18 kts | 122° |
| 2026-05-03 21:27 | 25.25624 | 55.37095 | 28 ft | 17 kts | 122° |
| 2026-05-03 21:27 | 25.25561 | 55.37205 | 27 ft | 17 kts | 122° |
| 2026-05-03 21:27 | 25.25503 | 55.37313 | 27 ft | 16 kts | 121° |
| 2026-05-03 21:27 | 25.25446 | 55.37418 | 28 ft | 16 kts | 121° |
| 2026-05-03 21:28 | 25.25391 | 55.37519 | 28 ft | 15 kts | 121° |
| 2026-05-03 21:28 | 25.25337 | 55.37616 | 29 ft | 15 kts | 121° |
| 2026-05-03 21:28 | 25.25275 | 55.37724 | 30 ft | 18 kts | 122° |
| 2026-05-03 21:28 | 25.25204 | 55.37852 | 30 ft | 21 kts | 122° |
| 2026-05-03 21:29 | 25.25123 | 55.37998 | 31 ft | 23 kts | 124° |
| 2026-05-03 21:29 | 25.25042 | 55.38143 | 31 ft | 22 kts | 120° |
| 2026-05-03 21:29 | 25.24939 | 55.38249 | 33 ft | 21 kts | 184° |
| 2026-05-03 21:29 | 25.24814 | 55.38167 | 33 ft | 21 kts | 212° |
| 2026-05-03 21:30 | 25.24783 | 55.38056 | 32 ft | 0 kts | 301° |
| 2026-05-03 21:30 | 25.24784 | 55.38055 | 32 ft | 0 kts | 301° |
| 2026-05-03 21:30 | 25.24820 | 55.37989 | 32 ft | 39 kts | 301° |
| 2026-05-03 21:31 | 25.25101 | 55.37486 | 29 ft | 113 kts | 301° |
| 2026-05-03 21:31 | 25.25619 | 55.36536 | 17 ft | 174 kts | 300° |
| 2026-05-03 21:31 | 25.26299 | 55.35332 | 454 ft | 194 kts | 303° |
| 2026-05-03 21:31 | 25.27036 | 55.34117 | 1418 ft | 179 kts | 300° |
| 2026-05-03 21:32 | 25.27641 | 55.33011 | 2556 ft | 168 kts | 299° |
| 2026-05-03 21:32 | 25.28288 | 55.31819 | 2931 ft | 196 kts | 300° |
| 2026-05-03 21:32 | 25.29048 | 55.30463 | 3205 ft | 216 kts | 306° |
| 2026-05-03 21:32 | 25.30319 | 55.29536 | 3687 ft | 231 kts | 344° |
| 2026-05-03 21:33 | 25.31941 | 55.29467 | 4336 ft | 235 kts | 357° |
| 2026-05-03 21:33 | 25.33585 | 55.29521 | 4957 ft | 238 kts | 357° |
| 2026-05-03 21:33 | 25.35244 | 55.29580 | 5606 ft | 240 kts | 357° |
| 2026-05-03 21:33 | 25.36917 | 55.29633 | 6375 ft | 239 kts | 357° |
| 2026-05-03 21:34 | 25.38581 | 55.29698 | 7074 ft | 241 kts | 2° |
| 2026-05-03 21:34 | 25.40180 | 55.30387 | 7651 ft | 260 kts | 32° |
| 2026-05-03 21:34 | 25.41511 | 55.31899 | 7870 ft | 289 kts | 47° |
| 2026-05-03 21:34 | 25.42784 | 55.33678 | 8345 ft | 299 kts | 47° |
| 2026-05-03 21:35 | 25.44081 | 55.35496 | 9051 ft | 302 kts | 47° |
| 2026-05-03 21:35 | 25.45390 | 55.37323 | 9769 ft | 304 kts | 47° |
| 2026-05-03 21:35 | 25.46737 | 55.39175 | 10203 ft | 318 kts | 47° |
| 2026-05-03 21:35 | 25.48178 | 55.41140 | 10360 ft | 339 kts | 47° |
| 2026-05-03 21:36 | 25.49666 | 55.43228 | 10775 ft | 350 kts | 49° |
| 2026-05-03 21:36 | 25.51159 | 55.45380 | 11396 ft | 353 kts | 50° |
| 2026-05-03 21:36 | 25.52322 | 55.47790 | 12044 ft | 362 kts | 72° |
| 2026-05-03 21:36 | 25.52551 | 55.50576 | 12728 ft | 368 kts | 95° |
| 2026-05-03 21:37 | 25.52480 | 55.51142 | 12872 ft | 368 kts | 99° |
| 2026-05-03 21:37 | 25.52122 | 55.52599 | 13244 ft | 370 kts | 111° |
| 2026-05-03 21:37 | 25.50879 | 55.55088 | 13964 ft | 369 kts | 122° |
| 2026-05-03 21:37 | 25.49477 | 55.57491 | 14451 ft | 375 kts | 123° |
| 2026-05-03 21:38 | 25.48033 | 55.59930 | 14909 ft | 382 kts | 123° |
| 2026-05-03 21:38 | 25.46583 | 55.62415 | 15409 ft | 386 kts | 122° |
| 2026-05-03 21:38 | 25.45133 | 55.64937 | 15939 ft | 390 kts | 122° |
| 2026-05-03 21:38 | 25.43676 | 55.67491 | 16448 ft | 395 kts | 122° |
| 2026-05-03 21:39 | 25.42366 | 55.70172 | 16910 ft | 399 kts | 107° |
| 2026-05-03 21:39 | 25.41719 | 55.73158 | 17426 ft | 400 kts | 99° |
| 2026-05-03 21:39 | 25.41147 | 55.76187 | 17938 ft | 405 kts | 100° |
| 2026-05-03 21:39 | 25.40535 | 55.79246 | 18356 ft | 410 kts | 101° |
| 2026-05-03 21:40 | 25.39886 | 55.82320 | 18804 ft | 413 kts | 101° |
| 2026-05-03 21:40 | 25.39219 | 55.85415 | 19281 ft | 415 kts | 102° |
| 2026-05-03 21:40 | 25.38549 | 55.88529 | 19738 ft | 418 kts | 101° |
| 2026-05-03 21:40 | 25.37876 | 55.91664 | 20196 ft | 420 kts | 101° |
| 2026-05-03 21:41 | 25.37200 | 55.94822 | 20631 ft | 424 kts | 101° |
| 2026-05-03 21:41 | 25.36520 | 55.98007 | 21071 ft | 427 kts | 101° |
| 2026-05-03 21:41 | 25.35837 | 56.01210 | 21490 ft | 430 kts | 101° |
| 2026-05-03 21:41 | 25.35148 | 56.04438 | 21914 ft | 433 kts | 102° |
| 2026-05-03 21:42 | 25.34453 | 56.07686 | 22332 ft | 437 kts | 102° |
| 2026-05-03 21:42 | 25.33750 | 56.10973 | 22738 ft | 440 kts | 102° |
| 2026-05-03 21:42 | 25.33042 | 56.14274 | 23142 ft | 443 kts | 102° |
| 2026-05-03 21:42 | 25.32456 | 56.17572 | 23499 ft | 444 kts | 95° |
| 2026-05-03 21:43 | 25.32146 | 56.20977 | 23826 ft | 446 kts | 92° |
| 2026-05-03 21:43 | 25.31933 | 56.24450 | 24145 ft | 449 kts | 91° |
| 2026-05-03 21:43 | 25.31722 | 56.27904 | 24473 ft | 452 kts | 92° |
| 2026-05-03 21:43 | 25.31474 | 56.31379 | 24753 ft | 456 kts | 92° |
| 2026-05-03 21:44 | 25.31194 | 56.34842 | 25026 ft | 460 kts | 93° |
| 2026-05-03 21:44 | 25.30894 | 56.38373 | 25322 ft | 463 kts | 93° |
| 2026-05-03 21:44 | 25.30660 | 56.41929 | 25624 ft | 465 kts | 90° |
| 2026-05-03 21:44 | 25.30556 | 56.45509 | 25913 ft | 467 kts | 88° |
| 2026-05-03 21:45 | 25.30494 | 56.49158 | 26203 ft | 470 kts | 88° |
| 2026-05-03 21:45 | 25.30417 | 56.52725 | 26470 ft | 473 kts | 89° |
| 2026-05-03 21:45 | 25.30312 | 56.56372 | 26733 ft | 476 kts | 91° |
| 2026-05-03 21:45 | 25.29897 | 56.60019 | 27035 ft | 481 kts | 100° |
| 2026-05-03 21:46 | 25.28990 | 56.63588 | 27306 ft | 485 kts | 110° |
| 2026-05-03 21:46 | 25.27705 | 56.67048 | 27583 ft | 488 kts | 112° |
| 2026-05-03 21:46 | 25.26359 | 56.70499 | 27831 ft | 491 kts | 113° |
| 2026-05-03 21:46 | 25.24996 | 56.73957 | 28073 ft | 493 kts | 113° |
| 2026-05-03 21:47 | 25.23630 | 56.77445 | 28326 ft | 496 kts | 112° |
| 2026-05-03 21:47 | 25.22270 | 56.80955 | 28578 ft | 498 kts | 112° |
| 2026-05-03 21:47 | 25.20915 | 56.84486 | 28832 ft | 500 kts | 112° |
| 2026-05-03 21:47 | 25.19561 | 56.88039 | 29035 ft | 504 kts | 112° |
| 2026-05-03 21:48 | 25.18201 | 56.91618 | 29225 ft | 507 kts | 112° |
| 2026-05-03 21:48 | 25.17295 | 56.94001 | 29380 ft | 508 kts | 112° |
| 2026-05-03 21:48 | 25.15925 | 56.97608 | 29621 ft | 510 kts | 112° |
| 2026-05-03 21:48 | 25.14548 | 57.01227 | 29845 ft | 512 kts | 112° |
| 2026-05-03 21:49 | 25.13171 | 57.04837 | 30120 ft | 511 kts | 112° |
| 2026-05-03 21:49 | 25.11790 | 57.08456 | 30355 ft | 512 kts | 112° |
| 2026-05-03 21:49 | 25.10403 | 57.12086 | 30545 ft | 514 kts | 112° |
| 2026-05-03 21:49 | 25.09008 | 57.15731 | 30701 ft | 517 kts | 112° |
| 2026-05-03 21:50 | 25.07608 | 57.19390 | 30847 ft | 519 kts | 112° |
| 2026-05-03 21:50 | 25.06202 | 57.23060 | 31092 ft | 519 kts | 112° |